THY2UC LTFM-GFLL
Flight info
| Callsign | THY2UC |
|---|---|
| Flight time | 1h 9m |
| Altitude | 30000 |
| Route | BARPE1D/35L BARPE UG12 GOLDO UM603 ALX DCT AGISA DCT IPTES DCT LORNO/N0486F310 DCT SUBOK/N0484F300 DCT LOTIN P702 NOSRO/N0487F310 M707 ABU N163 TAWUS/N0483F300 A18 IMN UB727 OVLAG OVLAG1B |
| Aircraft | B77L/H-SDE1E2E3FGHIJ2J3J4J5M1RWXY/LB1D1 |
Departure
| Time | 2026-05-04 20:49 |
|---|---|
| Airport | İstanbul Airport (LTFM) |
Arrival
| Time | 2026-05-04 21:58 |
|---|---|
| Airport | Lungi International Airport (GFLL) |
| Time | Latitude | Longitude | Altitude | Speed | Heading |
|---|---|---|---|---|---|
| 2026-05-04 20:27 | 41.27503 | 28.72087 | 338 ft | 0 kts | 269° |
| 2026-05-04 20:37 | 41.27504 | 28.72113 | 336 ft | 4 kts | 268° |
| 2026-05-04 20:37 | 41.27505 | 28.72148 | 333 ft | 4 kts | 267° |
| 2026-05-04 20:38 | 41.27506 | 28.72184 | 333 ft | 4 kts | 267° |
| 2026-05-04 20:38 | 41.27507 | 28.72214 | 333 ft | 4 kts | 266° |
| 2026-05-04 20:38 | 41.27513 | 28.72246 | 333 ft | 4 kts | 230° |
| 2026-05-04 20:38 | 41.27534 | 28.72265 | 333 ft | 4 kts | 192° |
| 2026-05-04 20:39 | 41.27559 | 28.72268 | 333 ft | 2 kts | 179° |
| 2026-05-04 20:39 | 41.27560 | 28.72268 | 333 ft | 1 kts | 179° |
| 2026-05-04 20:43 | 41.27534 | 28.72268 | 333 ft | 7 kts | 179° |
| 2026-05-04 20:44 | 41.27468 | 28.72270 | 334 ft | 12 kts | 179° |
| 2026-05-04 20:44 | 41.27387 | 28.72271 | 334 ft | 12 kts | 179° |
| 2026-05-04 20:44 | 41.27307 | 28.72273 | 334 ft | 12 kts | 179° |
| 2026-05-04 20:44 | 41.27226 | 28.72275 | 334 ft | 12 kts | 179° |
| 2026-05-04 20:45 | 41.27145 | 28.72277 | 333 ft | 12 kts | 179° |
| 2026-05-04 20:45 | 41.27064 | 28.72279 | 334 ft | 12 kts | 179° |
| 2026-05-04 20:45 | 41.26984 | 28.72281 | 338 ft | 12 kts | 179° |
| 2026-05-04 20:45 | 41.26903 | 28.72282 | 337 ft | 12 kts | 179° |
| 2026-05-04 20:46 | 41.26818 | 28.72286 | 334 ft | 14 kts | 178° |
| 2026-05-04 20:46 | 41.26700 | 28.72289 | 337 ft | 18 kts | 179° |
| 2026-05-04 20:46 | 41.26577 | 28.72292 | 337 ft | 18 kts | 179° |
| 2026-05-04 20:46 | 41.26453 | 28.72294 | 336 ft | 18 kts | 179° |
| 2026-05-04 20:47 | 41.26330 | 28.72297 | 337 ft | 18 kts | 179° |
| 2026-05-04 20:47 | 41.26234 | 28.72298 | 334 ft | 10 kts | 176° |
| 2026-05-04 20:47 | 41.26198 | 28.72349 | 334 ft | 4 kts | 92° |
| 2026-05-04 20:47 | 41.26201 | 28.72361 | 335 ft | 0 kts | 74° |
| 2026-05-04 20:48 | 41.26207 | 28.72432 | 335 ft | 12 kts | 86° |
| 2026-05-04 20:48 | 41.26214 | 28.72509 | 333 ft | 7 kts | 58° |
| 2026-05-04 20:48 | 41.26254 | 28.72524 | 336 ft | 0 kts | 359° |
| 2026-05-04 20:48 | 41.26283 | 28.72523 | 333 ft | 14 kts | 359° |
| 2026-05-04 20:49 | 41.26552 | 28.72517 | 336 ft | 76 kts | 359° |
| 2026-05-04 20:49 | 41.27344 | 28.72499 | 338 ft | 151 kts | 359° |
| 2026-05-04 20:49 | 41.28611 | 28.72477 | 420 ft | 202 kts | 358° |
| 2026-05-04 20:49 | 41.30015 | 28.72449 | 1125 ft | 204 kts | 354° |
| 2026-05-04 20:50 | 41.31422 | 28.72405 | 1880 ft | 206 kts | 356° |
| 2026-05-04 20:50 | 41.32914 | 28.72434 | 2200 ft | 225 kts | 359° |
| 2026-05-04 20:50 | 41.34512 | 28.72463 | 2578 ft | 234 kts | 359° |
| 2026-05-04 20:50 | 41.35584 | 28.72414 | 2907 ft | 233 kts | 345° |
| 2026-05-04 20:51 | 41.36991 | 28.71386 | 3331 ft | 236 kts | 310° |
| 2026-05-04 20:51 | 41.37933 | 28.69584 | 3752 ft | 243 kts | 299° |
| 2026-05-04 20:51 | 41.38496 | 28.67445 | 4104 ft | 252 kts | 269° |
| 2026-05-04 20:51 | 41.38315 | 28.65118 | 4593 ft | 256 kts | 264° |
| 2026-05-04 20:52 | 41.38184 | 28.62733 | 5339 ft | 263 kts | 272° |
| 2026-05-04 20:52 | 41.38116 | 28.60234 | 5763 ft | 275 kts | 274° |
| 2026-05-04 20:52 | 41.37767 | 28.57673 | 6289 ft | 289 kts | 259° |
| 2026-05-04 20:52 | 41.37098 | 28.55122 | 6918 ft | 295 kts | 255° |
| 2026-05-04 20:53 | 41.36354 | 28.52570 | 7596 ft | 297 kts | 255° |
| 2026-05-04 20:53 | 41.35596 | 28.49995 | 8233 ft | 301 kts | 254° |
| 2026-05-04 20:53 | 41.34836 | 28.47390 | 8892 ft | 303 kts | 255° |
| 2026-05-04 20:53 | 41.34081 | 28.44759 | 9529 ft | 306 kts | 255° |
| 2026-05-04 20:54 | 41.33324 | 28.42088 | 10122 ft | 310 kts | 255° |
| 2026-05-04 20:54 | 41.32559 | 28.39347 | 10471 ft | 325 kts | 255° |
| 2026-05-04 20:54 | 41.31755 | 28.36435 | 10608 ft | 346 kts | 255° |
| 2026-05-04 20:54 | 41.30903 | 28.33341 | 10769 ft | 366 kts | 254° |
| 2026-05-04 20:55 | 41.30003 | 28.30079 | 11025 ft | 384 kts | 254° |
| 2026-05-04 20:55 | 41.29067 | 28.26702 | 11535 ft | 393 kts | 254° |
| 2026-05-04 20:55 | 41.28113 | 28.23262 | 12164 ft | 399 kts | 254° |
| 2026-05-04 20:55 | 41.27162 | 28.19838 | 12886 ft | 402 kts | 254° |
| 2026-05-04 20:56 | 41.26191 | 28.16346 | 13639 ft | 404 kts | 254° |
| 2026-05-04 20:56 | 41.25213 | 28.12824 | 14298 ft | 408 kts | 254° |
| 2026-05-04 20:56 | 41.24226 | 28.09266 | 14841 ft | 414 kts | 254° |
| 2026-05-04 20:56 | 41.23223 | 28.05654 | 15363 ft | 419 kts | 253° |
| 2026-05-04 20:57 | 41.22209 | 28.02005 | 15942 ft | 423 kts | 253° |
| 2026-05-04 20:57 | 41.21183 | 27.98324 | 16513 ft | 427 kts | 253° |
| 2026-05-04 20:57 | 41.20145 | 27.94603 | 17077 ft | 432 kts | 253° |
| 2026-05-04 20:57 | 41.19094 | 27.90842 | 17626 ft | 436 kts | 253° |
| 2026-05-04 20:58 | 41.18032 | 27.87047 | 18166 ft | 441 kts | 253° |
| 2026-05-04 20:58 | 41.16957 | 27.83211 | 18664 ft | 445 kts | 253° |
| 2026-05-04 20:58 | 41.15871 | 27.79339 | 19170 ft | 449 kts | 253° |
| 2026-05-04 20:58 | 41.14775 | 27.75446 | 19679 ft | 451 kts | 253° |
| 2026-05-04 20:59 | 41.13674 | 27.71536 | 20170 ft | 455 kts | 253° |
| 2026-05-04 20:59 | 41.12561 | 27.67587 | 20604 ft | 459 kts | 253° |
| 2026-05-04 20:59 | 41.11436 | 27.63604 | 21084 ft | 463 kts | 253° |
| 2026-05-04 20:59 | 41.10303 | 27.59599 | 21597 ft | 465 kts | 253° |
| 2026-05-04 21:00 | 41.09161 | 27.55573 | 22083 ft | 468 kts | 253° |
| 2026-05-04 21:00 | 41.08014 | 27.51526 | 22572 ft | 471 kts | 253° |
| 2026-05-04 21:00 | 41.06872 | 27.47505 | 23026 ft | 474 kts | 253° |
| 2026-05-04 21:00 | 41.05692 | 27.43358 | 23531 ft | 476 kts | 253° |
| 2026-05-04 21:01 | 41.04519 | 27.39245 | 23967 ft | 478 kts | 253° |
| 2026-05-04 21:01 | 41.03356 | 27.35173 | 24398 ft | 480 kts | 253° |
| 2026-05-04 21:01 | 41.02173 | 27.31043 | 24858 ft | 480 kts | 253° |
| 2026-05-04 21:01 | 41.00987 | 27.26901 | 25291 ft | 482 kts | 253° |
| 2026-05-04 21:02 | 40.99794 | 27.22742 | 25687 ft | 484 kts | 253° |
| 2026-05-04 21:02 | 40.98595 | 27.18566 | 26069 ft | 487 kts | 253° |
| 2026-05-04 21:02 | 40.97388 | 27.14373 | 26495 ft | 487 kts | 252° |
| 2026-05-04 21:02 | 40.96182 | 27.10190 | 26999 ft | 487 kts | 252° |
| 2026-05-04 21:03 | 40.94975 | 27.06005 | 27398 ft | 488 kts | 252° |
| 2026-05-04 21:03 | 40.93782 | 27.01782 | 27737 ft | 490 kts | 255° |
| 2026-05-04 21:03 | 40.92865 | 26.97445 | 28077 ft | 490 kts | 261° |
| 2026-05-04 21:03 | 40.92254 | 26.93025 | 28450 ft | 488 kts | 266° |
| 2026-05-04 21:04 | 40.91972 | 26.88561 | 28798 ft | 488 kts | 270° |
| 2026-05-04 21:04 | 40.91748 | 26.84082 | 29130 ft | 489 kts | 269° |
| 2026-05-04 21:04 | 40.91514 | 26.79588 | 29494 ft | 490 kts | 269° |
| 2026-05-04 21:04 | 40.91267 | 26.75097 | 29946 ft | 489 kts | 269° |
| 2026-05-04 21:05 | 40.91009 | 26.70600 | 30047 ft | 492 kts | 269° |
| 2026-05-04 21:05 | 40.90743 | 26.66091 | 30045 ft | 491 kts | 268° |
| 2026-05-04 21:05 | 40.90200 | 26.57149 | 30037 ft | 486 kts | 268° |
| 2026-05-04 21:06 | 40.89655 | 26.48247 | 30038 ft | 486 kts | 268° |
| 2026-05-04 21:06 | 40.89106 | 26.39344 | 30032 ft | 486 kts | 268° |
| 2026-05-04 21:07 | 40.88550 | 26.30432 | 30035 ft | 488 kts | 268° |
| 2026-05-04 21:07 | 40.87951 | 26.21499 | 30009 ft | 489 kts | 266° |
| 2026-05-04 21:08 | 40.87059 | 26.12648 | 30009 ft | 490 kts | 265° |
| 2026-05-04 21:08 | 40.86169 | 26.03735 | 29992 ft | 489 kts | 265° |
| 2026-05-04 21:09 | 40.84669 | 25.94958 | 29980 ft | 493 kts | 253° |
| 2026-05-04 21:09 | 40.81815 | 25.86727 | 30005 ft | 494 kts | 243° |
| 2026-05-04 21:10 | 40.78468 | 25.78806 | 30004 ft | 494 kts | 243° |
| 2026-05-04 21:10 | 40.75138 | 25.70886 | 30029 ft | 494 kts | 243° |
| 2026-05-04 21:11 | 40.71827 | 25.62948 | 30018 ft | 494 kts | 243° |
| 2026-05-04 21:11 | 40.68520 | 25.55003 | 30025 ft | 494 kts | 243° |
| 2026-05-04 21:12 | 40.65207 | 25.47062 | 30029 ft | 495 kts | 243° |
| 2026-05-04 21:12 | 40.61882 | 25.39116 | 30025 ft | 496 kts | 243° |
| 2026-05-04 21:13 | 40.58549 | 25.31175 | 30014 ft | 496 kts | 242° |
| 2026-05-04 21:13 | 40.55213 | 25.23250 | 30023 ft | 494 kts | 242° |
| 2026-05-04 21:14 | 40.51879 | 25.15352 | 30023 ft | 493 kts | 242° |
| 2026-05-04 21:14 | 40.48550 | 25.07483 | 30024 ft | 492 kts | 242° |
| 2026-05-04 21:15 | 40.45243 | 24.99686 | 30014 ft | 492 kts | 242° |
| 2026-05-04 21:15 | 40.41914 | 24.91856 | 30020 ft | 491 kts | 242° |
| 2026-05-04 21:16 | 40.38583 | 24.84044 | 30027 ft | 491 kts | 242° |
| 2026-05-04 21:16 | 40.35243 | 24.76230 | 30029 ft | 491 kts | 242° |
| 2026-05-04 21:17 | 40.31898 | 24.68425 | 30014 ft | 491 kts | 242° |
| 2026-05-04 21:17 | 40.28545 | 24.60620 | 30034 ft | 491 kts | 242° |
| 2026-05-04 21:18 | 40.25186 | 24.52824 | 30024 ft | 491 kts | 241° |
| 2026-05-04 21:18 | 40.21824 | 24.45039 | 30022 ft | 491 kts | 241° |
| 2026-05-04 21:19 | 40.18459 | 24.37266 | 30023 ft | 491 kts | 241° |
| 2026-05-04 21:19 | 40.16368 | 24.32446 | 30024 ft | 490 kts | 241° |
| 2026-05-04 21:20 | 11.07915 | -9.92377 | 30555 ft | 489 kts | 232° |
| 2026-05-04 21:20 | 11.05919 | -9.94964 | 30345 ft | 494 kts | 233° |
| 2026-05-04 21:20 | 11.03823 | -9.97696 | 30146 ft | 496 kts | 233° |
| 2026-05-04 21:21 | 11.01671 | -10.00498 | 30035 ft | 495 kts | 233° |
| 2026-05-04 21:21 | 10.99586 | -10.03213 | 29971 ft | 492 kts | 233° |
| 2026-05-04 21:21 | 10.95384 | -10.08684 | 29890 ft | 489 kts | 233° |
| 2026-05-04 21:22 | 10.93451 | -10.11203 | 29888 ft | 490 kts | 233° |
| 2026-05-04 21:22 | 10.92410 | -10.12559 | 29926 ft | 489 kts | 233° |
| 2026-05-04 21:23 | 10.60466 | -10.54660 | 29700 ft | 456 kts | 234° |
| 2026-05-04 21:23 | 10.30749 | -10.94425 | 30052 ft | 465 kts | 233° |
| 2026-05-04 21:23 | 10.00489 | -11.34730 | 30221 ft | 488 kts | 233° |
| 2026-05-04 21:24 | 9.94604 | -11.42524 | 30091 ft | 483 kts | 233° |
| 2026-05-04 21:24 | 9.92586 | -11.45205 | 29984 ft | 473 kts | 233° |
| 2026-05-04 21:24 | 9.88621 | -11.50475 | 29894 ft | 470 kts | 233° |
| 2026-05-04 21:25 | 9.84641 | -11.55752 | 29890 ft | 472 kts | 233° |
| 2026-05-04 21:25 | 9.80639 | -11.61056 | 29881 ft | 475 kts | 233° |
| 2026-05-04 21:26 | 9.76619 | -11.66381 | 29883 ft | 476 kts | 233° |
| 2026-05-04 21:26 | 9.72588 | -11.71717 | 29876 ft | 472 kts | 233° |
| 2026-05-04 21:27 | 9.70629 | -11.74310 | 29855 ft | 456 kts | 233° |
| 2026-05-04 21:27 | 9.68735 | -11.76816 | 29852 ft | 440 kts | 233° |
| 2026-05-04 21:27 | 9.66907 | -11.79234 | 29858 ft | 427 kts | 233° |
| 2026-05-04 21:27 | 9.65090 | -11.81642 | 29875 ft | 432 kts | 233° |
| 2026-05-04 21:28 | 9.63270 | -11.84053 | 29682 ft | 430 kts | 233° |
| 2026-05-04 21:28 | 9.61477 | -11.86428 | 29173 ft | 429 kts | 233° |
| 2026-05-04 21:28 | 9.59674 | -11.88816 | 28777 ft | 424 kts | 233° |
| 2026-05-04 21:28 | 9.57870 | -11.91203 | 28406 ft | 419 kts | 233° |
| 2026-05-04 21:29 | 9.56146 | -11.93482 | 27896 ft | 408 kts | 233° |
| 2026-05-04 21:29 | 9.54427 | -11.95757 | 27030 ft | 406 kts | 233° |
| 2026-05-04 21:29 | 9.52713 | -11.98024 | 26174 ft | 405 kts | 233° |
| 2026-05-04 21:29 | 9.51009 | -12.00278 | 25398 ft | 402 kts | 233° |
| 2026-05-04 21:30 | 9.49329 | -12.02500 | 24930 ft | 390 kts | 233° |
| 2026-05-04 21:30 | 9.47703 | -12.04649 | 24497 ft | 379 kts | 232° |
| 2026-05-04 21:30 | 9.46109 | -12.06755 | 24124 ft | 376 kts | 232° |
| 2026-05-04 21:30 | 9.44523 | -12.08852 | 23713 ft | 375 kts | 232° |
| 2026-05-04 21:31 | 9.41345 | -12.13049 | 22826 ft | 375 kts | 232° |
| 2026-05-04 21:31 | 9.39764 | -12.15138 | 22410 ft | 373 kts | 231° |
| 2026-05-04 21:31 | 9.38189 | -12.17219 | 22008 ft | 371 kts | 231° |
| 2026-05-04 21:32 | 9.36625 | -12.19285 | 21609 ft | 369 kts | 231° |
| 2026-05-04 21:32 | 9.35070 | -12.21336 | 21209 ft | 367 kts | 230° |
| 2026-05-04 21:32 | 9.33516 | -12.23388 | 20812 ft | 366 kts | 230° |
| 2026-05-04 21:32 | 9.31971 | -12.25425 | 20422 ft | 364 kts | 230° |
| 2026-05-04 21:33 | 9.30434 | -12.27453 | 20029 ft | 362 kts | 231° |
| 2026-05-04 21:33 | 9.28903 | -12.29473 | 19637 ft | 361 kts | 230° |
| 2026-05-04 21:33 | 9.27376 | -12.31487 | 19233 ft | 360 kts | 230° |
| 2026-05-04 21:33 | 9.25854 | -12.33494 | 18836 ft | 359 kts | 230° |
| 2026-05-04 21:34 | 9.24331 | -12.35502 | 18440 ft | 359 kts | 230° |
| 2026-05-04 21:34 | 9.22809 | -12.37510 | 18007 ft | 359 kts | 230° |
| 2026-05-04 21:34 | 9.21289 | -12.39512 | 17577 ft | 358 kts | 230° |
| 2026-05-04 21:34 | 9.19778 | -12.41505 | 17160 ft | 356 kts | 229° |
| 2026-05-04 21:35 | 9.18271 | -12.43490 | 16766 ft | 354 kts | 229° |
| 2026-05-04 21:35 | 9.16774 | -12.45463 | 16371 ft | 353 kts | 229° |
| 2026-05-04 21:35 | 9.15282 | -12.47429 | 15982 ft | 351 kts | 229° |
| 2026-05-04 21:35 | 9.13802 | -12.49379 | 15603 ft | 349 kts | 229° |
| 2026-05-04 21:36 | 9.12019 | -12.51727 | 15130 ft | 348 kts | 229° |
| 2026-05-04 21:36 | 9.05968 | -12.59211 | 13600 ft | 338 kts | 215° |
| 2026-05-04 21:36 | 8.98382 | -12.64500 | 12065 ft | 326 kts | 210° |
| 2026-05-04 21:36 | 8.90985 | -12.69583 | 10658 ft | 320 kts | 211° |
| 2026-05-04 21:37 | 8.85294 | -12.73529 | 9967 ft | 301 kts | 210° |
| 2026-05-04 21:37 | 8.83604 | -12.74704 | 9860 ft | 290 kts | 210° |
| 2026-05-04 21:37 | 8.81948 | -12.75853 | 9513 ft | 287 kts | 210° |
| 2026-05-04 21:37 | 8.80314 | -12.76986 | 9185 ft | 283 kts | 210° |
| 2026-05-04 21:38 | 8.78686 | -12.78112 | 8896 ft | 285 kts | 210° |
| 2026-05-04 21:38 | 8.77033 | -12.79256 | 8576 ft | 290 kts | 211° |
| 2026-05-04 21:38 | 8.75358 | -12.80415 | 8229 ft | 291 kts | 211° |
| 2026-05-04 21:38 | 8.73695 | -12.81568 | 7889 ft | 288 kts | 211° |
| 2026-05-04 21:39 | 8.72055 | -12.82705 | 7561 ft | 286 kts | 211° |
| 2026-05-04 21:39 | 8.70426 | -12.83835 | 7223 ft | 283 kts | 211° |
| 2026-05-04 21:39 | 8.68813 | -12.84954 | 6906 ft | 280 kts | 211° |
| 2026-05-04 21:39 | 8.67214 | -12.86062 | 6574 ft | 278 kts | 212° |
| 2026-05-04 21:40 | 8.65618 | -12.87168 | 6183 ft | 277 kts | 212° |
| 2026-05-04 21:40 | 8.64064 | -12.88245 | 6093 ft | 267 kts | 212° |
| 2026-05-04 21:40 | 8.62504 | -12.89325 | 5725 ft | 275 kts | 212° |
| 2026-05-04 21:40 | 8.60921 | -12.90422 | 5416 ft | 277 kts | 212° |
| 2026-05-04 21:41 | 8.59338 | -12.91518 | 5086 ft | 274 kts | 212° |
| 2026-05-04 21:41 | 8.57773 | -12.92602 | 4760 ft | 271 kts | 212° |
| 2026-05-04 21:41 | 8.56250 | -12.93667 | 4412 ft | 260 kts | 216° |
| 2026-05-04 21:41 | 8.55134 | -12.95045 | 4103 ft | 254 kts | 248° |
| 2026-05-04 21:42 | 8.54861 | -12.96812 | 3915 ft | 260 kts | 275° |
| 2026-05-04 21:42 | 8.55283 | -12.98554 | 3668 ft | 251 kts | 287° |
| 2026-05-04 21:42 | 8.55625 | -12.99643 | 3506 ft | 239 kts | 285° |
| 2026-05-04 21:42 | 8.56094 | -13.01186 | 3222 ft | 221 kts | 285° |
| 2026-05-04 21:43 | 8.56520 | -13.02596 | 2969 ft | 199 kts | 285° |
| 2026-05-04 21:43 | 8.56903 | -13.03878 | 2737 ft | 183 kts | 284° |
| 2026-05-04 21:43 | 8.57271 | -13.05117 | 2604 ft | 185 kts | 284° |
| 2026-05-04 21:43 | 8.57637 | -13.06357 | 2412 ft | 183 kts | 284° |
| 2026-05-04 21:44 | 8.58003 | -13.07573 | 2224 ft | 179 kts | 284° |
| 2026-05-04 21:44 | 8.58362 | -13.08754 | 2155 ft | 175 kts | 284° |
| 2026-05-04 21:44 | 8.58723 | -13.09942 | 2035 ft | 179 kts | 285° |
| 2026-05-04 21:44 | 8.59094 | -13.11165 | 1730 ft | 185 kts | 284° |
| 2026-05-04 21:45 | 8.59479 | -13.12433 | 1191 ft | 192 kts | 285° |
| 2026-05-04 21:45 | 8.59851 | -13.13654 | 993 ft | 173 kts | 284° |
| 2026-05-04 21:45 | 8.60186 | -13.14760 | 755 ft | 156 kts | 285° |
| 2026-05-04 21:45 | 8.60484 | -13.15751 | 504 ft | 143 kts | 285° |
| 2026-05-04 21:46 | 8.60771 | -13.16696 | 394 ft | 142 kts | 285° |
| 2026-05-04 21:46 | 8.61072 | -13.17679 | 235 ft | 150 kts | 286° |
| 2026-05-04 21:46 | 8.61392 | -13.18706 | 110 ft | 152 kts | 279° |
| 2026-05-04 21:46 | 8.61688 | -13.19688 | 249 ft | 151 kts | 288° |
| 2026-05-04 21:47 | 8.62254 | -13.20563 | 788 ft | 159 kts | 326° |
| 2026-05-04 21:47 | 8.63366 | -13.20704 | 1352 ft | 170 kts | 6° |
| 2026-05-04 21:47 | 8.64480 | -13.20548 | 2083 ft | 160 kts | 0° |
| 2026-05-04 21:47 | 8.65594 | -13.20606 | 2533 ft | 163 kts | 350° |
| 2026-05-04 21:48 | 8.66782 | -13.20477 | 2662 ft | 183 kts | 26° |
| 2026-05-04 21:48 | 8.67655 | -13.19553 | 2965 ft | 185 kts | 69° |
| 2026-05-04 21:48 | 8.68016 | -13.18225 | 3220 ft | 206 kts | 84° |
| 2026-05-04 21:48 | 8.68199 | -13.16693 | 3460 ft | 231 kts | 85° |
| 2026-05-04 21:49 | 8.68312 | -13.15035 | 3954 ft | 245 kts | 94° |
| 2026-05-04 21:49 | 8.67920 | -13.13286 | 4106 ft | 263 kts | 108° |
| 2026-05-04 21:49 | 8.67348 | -13.11517 | 4081 ft | 266 kts | 109° |
| 2026-05-04 21:49 | 8.66764 | -13.09735 | 4076 ft | 267 kts | 109° |
| 2026-05-04 21:50 | 8.66182 | -13.07960 | 4081 ft | 266 kts | 109° |
| 2026-05-04 21:50 | 8.65601 | -13.06188 | 4088 ft | 266 kts | 109° |
| 2026-05-04 21:50 | 8.65018 | -13.04409 | 4079 ft | 267 kts | 109° |
| 2026-05-04 21:50 | 8.64431 | -13.02629 | 4084 ft | 267 kts | 109° |
| 2026-05-04 21:51 | 8.63845 | -13.00852 | 4090 ft | 267 kts | 109° |
| 2026-05-04 21:51 | 8.63258 | -12.99065 | 4077 ft | 268 kts | 109° |
| 2026-05-04 21:51 | 8.62669 | -12.97287 | 4082 ft | 267 kts | 109° |
| 2026-05-04 21:51 | 8.62080 | -12.95510 | 4080 ft | 266 kts | 109° |
| 2026-05-04 21:52 | 8.61492 | -12.93738 | 4080 ft | 266 kts | 109° |
| 2026-05-04 21:52 | 8.60651 | -12.92122 | 4070 ft | 259 kts | 136° |
| 2026-05-04 21:52 | 8.59137 | -12.91290 | 4067 ft | 250 kts | 171° |
| 2026-05-04 21:52 | 8.57457 | -12.91409 | 4077 ft | 239 kts | 196° |
| 2026-05-04 21:53 | 8.55960 | -12.92107 | 4079 ft | 240 kts | 214° |
| 2026-05-04 21:53 | 8.54748 | -12.93282 | 4091 ft | 244 kts | 233° |
| 2026-05-04 21:53 | 8.54086 | -12.94831 | 4066 ft | 244 kts | 267° |
| 2026-05-04 21:53 | 8.54402 | -12.96498 | 3992 ft | 245 kts | 289° |
| 2026-05-04 21:54 | 8.54985 | -12.98132 | 3827 ft | 248 kts | 288° |
| 2026-05-04 21:54 | 8.55539 | -12.99765 | 3375 ft | 242 kts | 287° |
| 2026-05-04 21:54 | 8.56058 | -13.01354 | 2883 ft | 234 kts | 286° |
| 2026-05-04 21:54 | 8.56545 | -13.02896 | 2392 ft | 226 kts | 285° |
| 2026-05-04 21:55 | 8.57002 | -13.04361 | 2160 ft | 212 kts | 285° |
| 2026-05-04 21:55 | 8.57442 | -13.05790 | 2160 ft | 215 kts | 285° |
| 2026-05-04 21:55 | 8.57872 | -13.07193 | 2172 ft | 200 kts | 285° |
| 2026-05-04 21:55 | 8.58280 | -13.08500 | 1958 ft | 192 kts | 285° |
| 2026-05-04 21:56 | 8.58665 | -13.09750 | 1723 ft | 178 kts | 285° |
| 2026-05-04 21:56 | 8.59005 | -13.10866 | 1506 ft | 155 kts | 285° |
| 2026-05-04 21:56 | 8.59314 | -13.11889 | 1311 ft | 153 kts | 285° |
| 2026-05-04 21:56 | 8.59627 | -13.12918 | 1109 ft | 152 kts | 285° |
| 2026-05-04 21:57 | 8.59934 | -13.13930 | 949 ft | 150 kts | 283° |
| 2026-05-04 21:57 | 8.60228 | -13.14936 | 726 ft | 151 kts | 284° |
| 2026-05-04 21:57 | 8.60529 | -13.15918 | 527 ft | 142 kts | 287° |
| 2026-05-04 21:57 | 8.60829 | -13.16857 | 328 ft | 140 kts | 285° |
| 2026-05-04 21:58 | 8.61109 | -13.17794 | 201 ft | 140 kts | 286° |
| 2026-05-04 21:58 | 8.61394 | -13.18722 | 99 ft | 135 kts | 283° |
| 2026-05-04 21:58 | 8.61647 | -13.19558 | 99 ft | 116 kts | 287° |
| 2026-05-04 21:58 | 8.61809 | -13.20103 | 97 ft | 13 kts | 276° |
| 2026-05-04 21:59 | 8.61740 | -13.20142 | 100 ft | 13 kts | 174° |